Current Weather Conditions: station AJXA2

sailwx.info

Wind from 280 at 4 knots gusting 5

Air temperature -0.9° C
Dewpoint -7.0° C

Last reported at 2020-Apr-05 07:32 UTC.
Time now 2020-Apr-05 08:17 UTC

Location: N 58°17' W 134°24'.
View on Google Maps.

See reports from other nearby stations

  
Tides and Currents Weather Stations Pressure Air Temp Water Temp Dewpoint Dewpoint Depression Visibility Wind Speed Wind Dir Waves Ship Positions
date/time (UTC)wind fromknots sea level pressurealtimeterstation pressurevisibilityair tempwater tempwave heightnotes
2020-Apr-05 07:32 280 4 gusting 5 -0.9
2020-Apr-05 07:22 310 5 gusting 6 -0.9
2020-Apr-05 07:12 310 4 gusting 6 -0.8
2020-Apr-05 07:02 300 4 gusting 6 -0.7
2020-Apr-05 06:52 310 5 gusting 6 -0.7
2020-Apr-05 06:42 300 4 gusting 5 -0.7
2020-Apr-05 06:32 290 4 gusting 5 -0.6
2020-Apr-05 06:22 290 4 gusting 5 -0.5
2020-Apr-05 06:12 310 2 gusting 5 -0.4
2020-Apr-05 06:02 310 4 gusting 6 -0.4
2020-Apr-05 05:52 310 4 gusting 5 -0.3
2020-Apr-05 05:42 300 2 gusting 5 -0.2
2020-Apr-05 05:32 280 2 gusting 4 -0.0
2020-Apr-05 05:22 270 4 gusting 5 0.1
2020-Apr-05 05:12 310 2 gusting 5 0.2
2020-Apr-05 05:02 030 2 gusting 4 0.3
2020-Apr-05 04:52 030 1 gusting 4 0.6
2020-Apr-05 04:42 230 1 gusting 4 0.7
2020-Apr-05 04:32 260 1 gusting 4 0.8
2020-Apr-05 04:22 260 4 gusting 5 0.9
2020-Apr-05 04:12 260 4 gusting 6 1.0
2020-Apr-05 04:02 260 2 gusting 4 1.3
2020-Apr-05 03:52 240 1 gusting 5 1.7
2020-Apr-05 03:42 250 2 gusting 4 2.1
2020-Apr-05 03:32 240 2 gusting 5 2.5
2020-Apr-05 03:22 280 2 gusting 6 2.9
2020-Apr-05 03:12 280 2 gusting 6 3.0
2020-Apr-05 03:02 230 1 gusting 4 3.3
2020-Apr-05 02:52 130 4 gusting 6 3.6
2020-Apr-05 02:42 150 6 gusting 11 3.9
2020-Apr-05 02:32 130 6 gusting 8 4.5
2020-Apr-05 02:22 270 2 gusting 5 4.6
2020-Apr-05 02:12 310 7 gusting 11 4.2
2020-Apr-05 02:02 310 9 gusting 11 4.2
2020-Apr-05 01:52 310 9 gusting 13 4.1
2020-Apr-05 01:42 310 12 gusting 13 4.0
2020-Apr-05 01:32 310 11 gusting 13 4.0
2020-Apr-05 01:22 310 12 gusting 14 4.0
2020-Apr-05 01:12 310 13 gusting 14 4.0
2020-Apr-05 01:02 310 13 gusting 14 4.0
2020-Apr-05 00:52 310 13 gusting 15 4.0
2020-Apr-05 00:42 310 14 gusting 17 3.8
2020-Apr-05 00:32 310 14 gusting 18 3.8
2020-Apr-05 00:22 310 13 gusting 17 3.8
2020-Apr-05 00:12 310 13 gusting 17 3.9
2020-Apr-04 23:52 310 8 gusting 13 4.6
2020-Apr-04 23:42 310 6 gusting 12 5.0
2020-Apr-04 23:32 310 6 gusting 13 5.3
2020-Apr-04 23:22 300 2 gusting 8 5.7
2020-Apr-04 23:12 150 1 gusting 4 5.2
2020-Apr-04 23:02 130 2 gusting 6 4.8
2020-Apr-04 22:52 140 4 gusting 6 4.6
2020-Apr-04 22:42 170 1 gusting 5 4.7
2020-Apr-04 22:32 310 7 gusting 12 4.0
2020-Apr-04 22:22 310 7 gusting 12 3.9
2020-Apr-04 22:12 300 6 gusting 11 3.9
2020-Apr-04 22:02 300 7 gusting 11 3.8
2020-Apr-04 21:52 300 7 gusting 12 3.7
2020-Apr-04 21:42 310 9 gusting 13 3.4
2020-Apr-04 21:32 310 9 gusting 13 3.3
2020-Apr-04 21:22 310 9 gusting 13 3.4
2020-Apr-04 21:12 310 5 gusting 12 4.2
2020-Apr-04 21:02 310 2 gusting 6 3.9
2020-Apr-04 20:52 320 4 gusting 11 3.1
2020-Apr-04 20:42 300 7 gusting 12 2.5
2020-Apr-04 20:32 310 9 gusting 13 2.2
2020-Apr-04 20:22 310 13 gusting 15 1.9
2020-Apr-04 20:12 310 13 gusting 18 1.5
2020-Apr-04 20:02 310 15 gusting 19 1.3
2020-Apr-04 19:52 310 14 gusting 17 1.2
2020-Apr-04 19:42 310 13 gusting 15 1.0
2020-Apr-04 19:32 310 13 gusting 17 0.8
2020-Apr-04 19:22 310 14 gusting 17 0.5
2020-Apr-04 19:12 310 14 gusting 17 0.3
2020-Apr-04 19:02 310 14 gusting 17 0.1
2020-Apr-04 18:52 310 14 gusting 17 -0.0
2020-Apr-04 18:42 310 15 gusting 18 -0.2
2020-Apr-04 18:32 310 13 gusting 15 -0.3
2020-Apr-04 18:22 310 13 gusting 15 -0.7
2020-Apr-04 18:12 310 13 gusting 17 -0.9
2020-Apr-04 18:02 310 13 gusting 17 -1.0
2020-Apr-04 17:52 310 13 gusting 17 -1.1
2020-Apr-04 17:42 310 12 gusting 17 -1.2
2020-Apr-04 17:32 310 7 gusting 11 -1.2
2020-Apr-04 17:22 310 4 gusting 7 -1.5
2020-Apr-04 17:12 320 6 gusting 12 -2.3
2020-Apr-04 17:02 310 9 gusting 13 -2.4
2020-Apr-04 16:52 310 8 gusting 11 -2.6
2020-Apr-04 16:42 310 7 gusting 12 -2.6
2020-Apr-04 16:32 290 5 gusting 7 -2.5
2020-Apr-04 16:22 310 7 gusting 12 -3.6
2020-Apr-04 16:12 320 8 gusting 12 -4.1
2020-Apr-04 16:02 320 8 gusting 11 -4.9
2020-Apr-04 15:52 320 9 gusting 13 -4.9
2020-Apr-04 15:42 310 7 gusting 12 -5.0
2020-Apr-04 15:32 290 6 gusting 11 -4.9
2020-Apr-04 15:22 310 7 gusting 12 -5.0
2020-Apr-04 15:12 300 7 gusting 12 -5.0
2020-Apr-04 15:02 310 7 gusting 11 -5.0
2020-Apr-04 14:52 300 5 gusting 8 -5.1
2020-Apr-04 14:42 270 6 gusting 7 -5.1
2020-Apr-04 14:32 290 6 gusting 13 -5.0
2020-Apr-04 14:22 310 11 gusting 14 -5.1
2020-Apr-04 14:12 270 8 gusting 9 -5.3
2020-Apr-04 14:02 290 9 gusting 13 -4.9
2020-Apr-04 13:52 290 8 gusting 13 -5.0
2020-Apr-04 13:42 310 11 gusting 13 -5.0
2020-Apr-04 13:32 310 11 gusting 13 -5.1
2020-Apr-04 13:22 310 13 gusting 15 -5.2
2020-Apr-04 13:12 320 13 gusting 17 -5.2
2020-Apr-04 13:02 310 14 gusting 19 -5.1
2020-Apr-04 12:52 310 12 gusting 14 -5.1
2020-Apr-04 12:42 310 12 gusting 14 -5.0
2020-Apr-04 12:32 310 13 gusting 18 -5.0
2020-Apr-04 12:22 310 13 gusting 14 -4.9
2020-Apr-04 12:12 300 8 gusting 13 -4.9
2020-Apr-04 12:02 300 7 gusting 13 -4.7
2020-Apr-04 11:52 310 5 gusting 8 -4.6
2020-Apr-04 11:42 290 6 gusting 9 -4.5
2020-Apr-04 11:32 280 5 gusting 6 -4.5
2020-Apr-04 11:22 270 5 gusting 6 -4.5
2020-Apr-04 11:12 270 4 gusting 5 -4.4
2020-Apr-04 11:02 260 2 gusting 6 -4.3
2020-Apr-04 10:52 250 2 gusting 6 -4.2
2020-Apr-04 10:42 260 2 gusting 6 -4.3
2020-Apr-04 10:32 270 4 gusting 6 -4.2
2020-Apr-04 10:22 260 4 gusting 6 -4.2
2020-Apr-04 10:12 280 5 gusting 8 -4.1
2020-Apr-04 10:02 300 6 gusting 11 -4.1
2020-Apr-04 09:52 310 5 gusting 8 -4.1
2020-Apr-04 09:42 270 5 gusting 9 -4.0
2020-Apr-04 09:32 300 6 gusting 11 -4.0
2020-Apr-04 09:22 280 5 gusting 7 -4.0
2020-Apr-04 09:12 280 6 gusting 6 -3.9
2020-Apr-04 09:02 270 5 gusting 6 -3.7
2020-Apr-04 08:52 280 5 gusting 6 -3.5
2020-Apr-04 08:42 280 2 gusting 5 -3.5
2020-Apr-04 08:32 280 5 gusting 6 -3.6
2020-Apr-04 08:22 270 6 gusting 7 -3.4
2020-Apr-04 08:12 280 5 gusting 6 -3.3
2020-Apr-04 08:02 270 4 gusting 6 -3.1
2020-Apr-04 07:52 240 4 gusting 5 -2.9
2020-Apr-04 07:42 310 1 gusting 2 -3.0
2020-Apr-04 07:32 270 2 gusting 5 -3.0
2020-Apr-04 07:12 270 2 gusting 5 -2.7
2020-Apr-04 07:02 270 1 gusting 4 -2.8
2020-Apr-04 06:52 260 4 gusting 6 -2.8
2020-Apr-04 06:42 260 5 gusting 7 -2.8
2020-Apr-04 06:32 270 5 gusting 6 -2.6
2020-Apr-04 06:22 260 4 gusting 6 -2.5
2020-Apr-04 06:12 280 4 gusting 6 -2.4
2020-Apr-04 06:02 270 4 gusting 6 -2.3
2020-Apr-04 05:52 270 4 gusting 6 -2.2
2020-Apr-04 05:42 270 4 gusting 5 -2.1
2020-Apr-04 05:32 280 2 gusting 5 -2.0
2020-Apr-04 05:22 250 4 gusting 7 -1.9
2020-Apr-04 05:12 250 4 gusting 7 -1.7
2020-Apr-04 05:02 020 1 gusting 1 -1.6
2020-Apr-04 04:42 210 0 gusting 2 -1.2
2020-Apr-04 04:32 210 0 gusting 2 -1.4
2020-Apr-04 04:22 080 0 gusting 2 -1.7
2020-Apr-04 04:12 090 1 gusting 2 -1.8
2020-Apr-04 04:02 100 2 gusting 4 -1.8
2020-Apr-04 03:52 110 2 gusting 4 -1.7
2020-Apr-04 03:42 100 2 gusting 5 -1.7
2020-Apr-04 03:32 110 2 gusting 5 -1.6
2020-Apr-04 03:22 140 2 gusting 6 -1.7
2020-Apr-04 03:12 130 5 gusting 8 -1.8
2020-Apr-04 03:02 140 6 gusting 9 -1.8
2020-Apr-04 02:52 150 8 gusting 12 -1.9
2020-Apr-04 02:42 140 7 gusting 12 -2.0
2020-Apr-04 02:32 140 9 gusting 12 -2.0
2020-Apr-04 02:22 150 9 gusting 13 -2.0
2020-Apr-04 02:12 140 7 gusting 13 -2.0
2020-Apr-04 02:02 120 7 gusting 12 -2.1
2020-Apr-04 01:52 130 9 gusting 13 -2.0
2020-Apr-04 01:42 130 7 gusting 13 -2.0
2020-Apr-04 01:32 140 11 gusting 13 -2.1
2020-Apr-04 01:22 140 13 gusting 15 -2.1
2020-Apr-04 01:12 140 11 gusting 14 -2.1
2020-Apr-04 01:02 140 12 gusting 14 -2.2
2020-Apr-04 00:52 130 8 gusting 14 -2.4
2020-Apr-04 00:42 140 8 gusting 13 -2.4
2020-Apr-04 00:32 130 8 gusting 13 -2.4
2020-Apr-04 00:12 110 6 gusting 9 -2.5
2020-Apr-03 23:52 100 6 gusting 8 -2.5
2020-Apr-03 23:42 100 6 gusting 11 -2.5
2020-Apr-03 23:32 120 6 gusting 11 -2.6
2020-Apr-03 23:12 110 6 gusting 9 -2.7
2020-Apr-03 23:02 100 6 gusting 9 -2.8
2020-Apr-03 22:52 130 6 gusting 12 -2.8
2020-Apr-03 22:42 140 8 gusting 12 -2.8
2020-Apr-03 22:32 140 9 gusting 13 -2.7
2020-Apr-03 22:22 150 9 gusting 13 -2.7
2020-Apr-03 22:12 150 9 gusting 13 -2.9
2020-Apr-03 22:02 160 11 gusting 14 -2.9
2020-Apr-03 21:52 150 11 gusting 17 -2.7
2020-Apr-03 21:42 150 12 gusting 17 -2.7
2020-Apr-03 21:32 150 13 gusting 18 -2.5
2020-Apr-03 21:22 140 12 gusting 20 -2.4
2020-Apr-03 21:12 120 8 gusting 18 -2.2
2020-Apr-03 21:02 100 9 gusting 17 -2.1
2020-Apr-03 20:52 130 13 gusting 26 -1.9
2020-Apr-03 20:42 150 15 gusting 27 -1.8
2020-Apr-03 20:32 150 15 gusting 27 -1.6
2020-Apr-03 20:22 150 18 gusting 27 -1.6
2020-Apr-03 20:12 160 13 gusting 19 -1.3
2020-Apr-03 20:02 150 15 gusting 25 -1.2
2020-Apr-03 19:52 150 18 gusting 27 -1.0
2020-Apr-03 19:42 140 18 gusting 25 -0.8
2020-Apr-03 19:32 140 18 gusting 21 -0.8
2020-Apr-03 19:22 140 17 gusting 21 -0.8
2020-Apr-03 19:12 140 14 gusting 20 -0.7
2020-Apr-03 19:02 140 13 gusting 18 -0.7
2020-Apr-03 18:52 140 17 gusting 20 -0.8
2020-Apr-03 18:42 140 18 gusting 22 -0.8
2020-Apr-03 18:32 140 17 gusting 20 -0.7
2020-Apr-03 18:22 140 15 gusting 20 -0.7
2020-Apr-03 18:12 140 15 gusting 21 -0.7
2020-Apr-03 18:02 140 15 gusting 20 -0.7
2020-Apr-03 17:52 130 12 gusting 18 -0.6
2020-Apr-03 17:42 130 14 gusting 19 -0.7
2020-Apr-03 17:32 130 14 gusting 18 -0.6
2020-Apr-03 17:22 140 14 gusting 20 -0.5
2020-Apr-03 17:12 140 12 gusting 19 -0.5
2020-Apr-03 17:02 140 12 gusting 17 -0.5
2020-Apr-03 16:52 140 12 gusting 15 -0.6
2020-Apr-03 16:42 120 5 gusting 13 -0.8
2020-Apr-03 16:32 100 4 gusting 7 -1.0
2020-Apr-03 16:22 120 2 gusting 6 -1.2
2020-Apr-03 16:12 100 4 gusting 6 -1.6
2020-Apr-03 16:02 120 4 gusting 6 -1.9
2020-Apr-03 15:52 110 4 gusting 6 -2.0
2020-Apr-03 15:42 180 5 gusting 6 -2.2
2020-Apr-03 15:32 180 6 gusting 6 -2.4
2020-Apr-03 15:22 160 5 gusting 6 -2.4
2020-Apr-03 15:12 170 4 gusting 6 -2.6
2020-Apr-03 15:02 180 5 gusting 6 -2.9
2020-Apr-03 14:52 150 5 gusting 7 -3.0
2020-Apr-03 14:42 180 4 gusting 5 -3.3
2020-Apr-03 14:32 150 2 gusting 5 -3.6
2020-Apr-03 14:22 140 1 gusting 2 -3.9
2020-Apr-03 14:12 300 1 gusting 2 -4.2
2020-Apr-03 14:02 280 2 gusting 5 -4.3
2020-Apr-03 13:52 310 5 gusting 6 -4.3
2020-Apr-03 13:42 300 4 gusting 6 -4.3
2020-Apr-03 13:32 310 4 gusting 6 -4.3
2020-Apr-03 13:22 290 5 gusting 6 -4.2
2020-Apr-03 13:12 310 6 gusting 7 -4.1
2020-Apr-03 13:02 310 5 gusting 6 -4.1
2020-Apr-03 12:52 300 5 gusting 6 -4.2
2020-Apr-03 12:42 300 5 gusting 7 -4.0
2020-Apr-03 11:22 300 6 gusting 9 -3.5
2020-Apr-03 11:12 300 6 gusting 7 -3.4
2020-Apr-03 11:02 290 5 gusting 6 -3.4
2020-Apr-03 10:52 310 6 gusting 8 -3.3
2020-Apr-03 10:42 300 6 gusting 9 -3.3
2020-Apr-03 10:32 300 5 gusting 8 -3.2
2020-Apr-03 10:22 270 5 gusting 9 -3.0
2020-Apr-03 10:12 310 6 gusting 12 -2.9
2020-Apr-03 10:02 290 5 gusting 7 -2.7
2020-Apr-03 09:52 300 6 gusting 12 -2.4
2020-Apr-03 09:42 250 4 gusting 8 -2.1
2020-Apr-03 09:32 310 4 gusting 11 -1.9
2020-Apr-03 09:22 290 6 gusting 13 -2.0
2020-Apr-03 09:12 300 7 gusting 14 -2.4
2020-Apr-03 09:02 290 7 gusting 15 -2.5
2020-Apr-03 08:52 290 7 gusting 11 -2.9
2020-Apr-03 08:42 300 6 gusting 9 -2.8
2020-Apr-03 08:32 280 6 gusting 8 -2.6
2020-Apr-03 08:22 290 5 gusting 7 -2.4
2020-Apr-03 08:12 270 4 gusting 7 -2.4
2020-Apr-03 08:02 280 5 gusting 6 -2.5